sensor_id;sensor_type;location;lat;lon;timestamp;P1;durP1;ratioP1;P2;durP2;ratioP2
22282;SDS011;11310;51.528;21.204;2023-10-13T00:01:04;9.55;;;2.33;;
22282;SDS011;11310;51.528;21.204;2023-10-13T00:03:34;4.63;;;1.63;;
22282;SDS011;11310;51.528;21.204;2023-10-13T00:06:04;6.13;;;1.80;;
22282;SDS011;11310;51.528;21.204;2023-10-13T00:08:34;6.38;;;2.33;;
22282;SDS011;11310;51.528;21.204;2023-10-13T00:11:05;8.75;;;2.30;;
22282;SDS011;11310;51.528;21.204;2023-10-13T00:13:36;6.93;;;2.20;;
22282;SDS011;11310;51.528;21.204;2023-10-13T00:16:09;4.97;;;1.75;;
22282;SDS011;11310;51.528;21.204;2023-10-13T00:18:44;5.60;;;2.17;;
22282;SDS011;11310;51.528;21.204;2023-10-13T00:21:13;5.75;;;2.15;;
22282;SDS011;11310;51.528;21.204;2023-10-13T00:23:48;5.07;;;1.92;;
22282;SDS011;11310;51.528;21.204;2023-10-13T00:26:24;9.02;;;2.25;;
22282;SDS011;11310;51.528;21.204;2023-10-13T00:28:57;4.78;;;1.63;;
22282;SDS011;11310;51.528;21.204;2023-10-13T00:31:36;7.15;;;2.00;;
22282;SDS011;11310;51.528;21.204;2023-10-13T00:34:10;6.85;;;2.05;;
22282;SDS011;11310;51.528;21.204;2023-10-13T00:36:40;5.60;;;2.00;;
22282;SDS011;11310;51.528;21.204;2023-10-13T00:39:17;5.40;;;1.77;;
22282;SDS011;11310;51.528;21.204;2023-10-13T00:41:46;5.35;;;2.00;;
22282;SDS011;11310;51.528;21.204;2023-10-13T00:44:25;6.20;;;2.05;;
22282;SDS011;11310;51.528;21.204;2023-10-13T00:46:55;7.40;;;2.13;;
22282;SDS011;11310;51.528;21.204;2023-10-13T00:49:24;4.75;;;1.83;;
22282;SDS011;11310;51.528;21.204;2023-10-13T00:51:51;7.28;;;1.80;;
22282;SDS011;11310;51.528;21.204;2023-10-13T00:54:23;7.57;;;2.20;;
22282;SDS011;11310;51.528;21.204;2023-10-13T00:56:54;5.35;;;1.77;;
22282;SDS011;11310;51.528;21.204;2023-10-13T00:59:32;6.00;;;2.22;;
22282;SDS011;11310;51.528;21.204;2023-10-13T01:02:06;6.97;;;2.00;;
22282;SDS011;11310;51.528;21.204;2023-10-13T01:04:49;6.53;;;2.40;;
22282;SDS011;11310;51.528;21.204;2023-10-13T01:07:18;6.00;;;2.17;;
22282;SDS011;11310;51.528;21.204;2023-10-13T01:12:19;5.20;;;1.77;;
22282;SDS011;11310;51.528;21.204;2023-10-13T01:14:46;9.48;;;2.10;;
22282;SDS011;11310;51.528;21.204;2023-10-13T01:17:15;5.68;;;1.90;;
22282;SDS011;11310;51.528;21.204;2023-10-13T01:19:43;6.13;;;1.95;;
22282;SDS011;11310;51.528;21.204;2023-10-13T01:22:12;3.97;;;1.90;;
22282;SDS011;11310;51.528;21.204;2023-10-13T01:24:41;8.30;;;2.10;;
22282;SDS011;11310;51.528;21.204;2023-10-13T01:27:10;5.93;;;2.00;;
22282;SDS011;11310;51.528;21.204;2023-10-13T01:29:44;4.95;;;2.17;;
22282;SDS011;11310;51.528;21.204;2023-10-13T01:32:18;6.22;;;2.22;;
22282;SDS011;11310;51.528;21.204;2023-10-13T01:34:47;9.57;;;2.38;;
22282;SDS011;11310;51.528;21.204;2023-10-13T01:37:16;8.20;;;2.03;;
22282;SDS011;11310;51.528;21.204;2023-10-13T01:39:47;5.47;;;1.85;;
22282;SDS011;11310;51.528;21.204;2023-10-13T01:42:17;6.10;;;2.17;;
22282;SDS011;11310;51.528;21.204;2023-10-13T01:44:49;4.82;;;1.80;;
22282;SDS011;11310;51.528;21.204;2023-10-13T01:47:19;5.93;;;1.83;;
22282;SDS011;11310;51.528;21.204;2023-10-13T01:49:50;4.35;;;1.77;;
22282;SDS011;11310;51.528;21.204;2023-10-13T01:52:18;7.97;;;2.40;;
22282;SDS011;11310;51.528;21.204;2023-10-13T01:54:48;6.53;;;2.42;;
22282;SDS011;11310;51.528;21.204;2023-10-13T01:57:17;6.07;;;1.60;;
22282;SDS011;11310;51.528;21.204;2023-10-13T01:59:47;5.65;;;2.00;;
22282;SDS011;11310;51.528;21.204;2023-10-13T02:02:17;6.07;;;2.28;;
22282;SDS011;11310;51.528;21.204;2023-10-13T02:04:57;6.47;;;1.95;;
22282;SDS011;11310;51.528;21.204;2023-10-13T02:07:28;3.97;;;1.80;;
22282;SDS011;11310;51.528;21.204;2023-10-13T02:09:59;4.07;;;2.05;;
22282;SDS011;11310;51.528;21.204;2023-10-13T02:12:32;6.03;;;2.00;;
22282;SDS011;11310;51.528;21.204;2023-10-13T02:15:11;4.00;;;1.75;;
22282;SDS011;11310;51.528;21.204;2023-10-13T02:17:47;5.15;;;1.90;;
22282;SDS011;11310;51.528;21.204;2023-10-13T02:20:19;6.93;;;2.35;;
22282;SDS011;11310;51.528;21.204;2023-10-13T02:22:50;4.75;;;1.88;;
22282;SDS011;11310;51.528;21.204;2023-10-13T02:25:20;5.30;;;1.90;;
22282;SDS011;11310;51.528;21.204;2023-10-13T02:28:03;7.65;;;2.00;;
22282;SDS011;11310;51.528;21.204;2023-10-13T02:30:37;7.68;;;2.20;;
22282;SDS011;11310;51.528;21.204;2023-10-13T02:33:05;4.63;;;1.88;;
22282;SDS011;11310;51.528;21.204;2023-10-13T02:35:33;4.90;;;1.73;;
22282;SDS011;11310;51.528;21.204;2023-10-13T02:38:02;4.10;;;1.85;;
22282;SDS011;11310;51.528;21.204;2023-10-13T02:40:39;5.57;;;1.92;;
22282;SDS011;11310;51.528;21.204;2023-10-13T02:43:06;8.43;;;2.10;;
22282;SDS011;11310;51.528;21.204;2023-10-13T02:45:35;6.05;;;1.95;;
22282;SDS011;11310;51.528;21.204;2023-10-13T02:48:04;6.93;;;2.17;;
22282;SDS011;11310;51.528;21.204;2023-10-13T02:50:40;8.90;;;2.13;;
22282;SDS011;11310;51.528;21.204;2023-10-13T02:53:12;5.03;;;2.03;;
22282;SDS011;11310;51.528;21.204;2023-10-13T02:55:51;6.10;;;1.95;;
22282;SDS011;11310;51.528;21.204;2023-10-13T02:58:19;4.15;;;1.85;;
22282;SDS011;11310;51.528;21.204;2023-10-13T03:00:49;4.07;;;1.90;;
22282;SDS011;11310;51.528;21.204;2023-10-13T03:03:16;6.35;;;1.80;;
22282;SDS011;11310;51.528;21.204;2023-10-13T03:05:46;6.13;;;1.98;;
22282;SDS011;11310;51.528;21.204;2023-10-13T03:08:13;6.18;;;1.75;;
22282;SDS011;11310;51.528;21.204;2023-10-13T03:10:54;4.97;;;1.75;;
22282;SDS011;11310;51.528;21.204;2023-10-13T03:13:21;5.53;;;2.33;;
22282;SDS011;11310;51.528;21.204;2023-10-13T03:15:50;4.10;;;1.63;;
22282;SDS011;11310;51.528;21.204;2023-10-13T03:18:17;7.03;;;2.10;;
22282;SDS011;11310;51.528;21.204;2023-10-13T03:20:46;4.85;;;1.67;;
22282;SDS011;11310;51.528;21.204;2023-10-13T03:23:17;6.72;;;1.70;;
22282;SDS011;11310;51.528;21.204;2023-10-13T03:25:45;7.32;;;2.28;;
22282;SDS011;11310;51.528;21.204;2023-10-13T03:28:22;6.32;;;1.60;;
22282;SDS011;11310;51.528;21.204;2023-10-13T03:31:00;8.18;;;1.77;;
22282;SDS011;11310;51.528;21.204;2023-10-13T03:33:29;6.90;;;1.95;;
22282;SDS011;11310;51.528;21.204;2023-10-13T03:35:59;4.25;;;1.95;;
22282;SDS011;11310;51.528;21.204;2023-10-13T03:38:32;6.40;;;1.92;;
22282;SDS011;11310;51.528;21.204;2023-10-13T03:41:04;7.18;;;1.98;;
22282;SDS011;11310;51.528;21.204;2023-10-13T03:43:48;7.10;;;2.05;;
22282;SDS011;11310;51.528;21.204;2023-10-13T03:46:19;7.22;;;1.80;;
22282;SDS011;11310;51.528;21.204;2023-10-13T03:48:49;7.25;;;2.03;;
22282;SDS011;11310;51.528;21.204;2023-10-13T03:51:21;6.20;;;1.88;;
22282;SDS011;11310;51.528;21.204;2023-10-13T03:53:58;6.72;;;1.80;;
22282;SDS011;11310;51.528;21.204;2023-10-13T03:56:27;7.85;;;2.25;;
22282;SDS011;11310;51.528;21.204;2023-10-13T03:59:08;4.55;;;1.52;;
22282;SDS011;11310;51.528;21.204;2023-10-13T04:01:45;5.13;;;1.70;;
22282;SDS011;11310;51.528;21.204;2023-10-13T04:04:20;6.72;;;1.90;;
22282;SDS011;11310;51.528;21.204;2023-10-13T04:07:01;3.42;;;1.40;;
22282;SDS011;11310;51.528;21.204;2023-10-13T04:09:53;3.42;;;1.30;;
22282;SDS011;11310;51.528;21.204;2023-10-13T04:12:39;8.23;;;1.85;;
22282;SDS011;11310;51.528;21.204;2023-10-13T04:15:26;4.43;;;1.55;;
22282;SDS011;11310;51.528;21.204;2023-10-13T04:18:04;4.78;;;1.55;;
22282;SDS011;11310;51.528;21.204;2023-10-13T04:20:52;4.28;;;1.70;;
22282;SDS011;11310;51.528;21.204;2023-10-13T04:23:35;5.22;;;1.60;;
22282;SDS011;11310;51.528;21.204;2023-10-13T04:26:24;5.55;;;1.85;;
22282;SDS011;11310;51.528;21.204;2023-10-13T04:29:03;5.22;;;2.05;;
22282;SDS011;11310;51.528;21.204;2023-10-13T04:31:39;6.30;;;2.17;;
22282;SDS011;11310;51.528;21.204;2023-10-13T04:34:25;8.90;;;2.13;;
22282;SDS011;11310;51.528;21.204;2023-10-13T04:37:02;7.97;;;2.17;;
22282;SDS011;11310;51.528;21.204;2023-10-13T04:39:50;7.55;;;2.30;;
22282;SDS011;11310;51.528;21.204;2023-10-13T04:42:24;9.48;;;2.20;;
22282;SDS011;11310;51.528;21.204;2023-10-13T04:45:16;10.38;;;2.25;;
22282;SDS011;11310;51.528;21.204;2023-10-13T04:48:04;9.15;;;2.40;;
22282;SDS011;11310;51.528;21.204;2023-10-13T04:50:58;5.10;;;1.90;;
22282;SDS011;11310;51.528;21.204;2023-10-13T04:53:41;7.68;;;2.17;;
22282;SDS011;11310;51.528;21.204;2023-10-13T04:56:23;5.45;;;2.00;;
22282;SDS011;11310;51.528;21.204;2023-10-13T04:59:09;4.97;;;1.83;;
22282;SDS011;11310;51.528;21.204;2023-10-13T05:02:03;9.32;;;1.77;;
22282;SDS011;11310;51.528;21.204;2023-10-13T05:04:51;6.05;;;2.17;;
22282;SDS011;11310;51.528;21.204;2023-10-13T05:07:49;8.65;;;2.17;;
22282;SDS011;11310;51.528;21.204;2023-10-13T05:10:35;12.18;;;1.73;;
22282;SDS011;11310;51.528;21.204;2023-10-13T05:13:21;4.95;;;1.75;;
22282;SDS011;11310;51.528;21.204;2023-10-13T05:16:07;10.55;;;1.70;;
22282;SDS011;11310;51.528;21.204;2023-10-13T05:18:54;8.90;;;1.85;;
22282;SDS011;11310;51.528;21.204;2023-10-13T05:21:41;8.52;;;2.25;;
22282;SDS011;11310;51.528;21.204;2023-10-13T05:24:33;11.90;;;2.10;;
22282;SDS011;11310;51.528;21.204;2023-10-13T05:27:19;10.13;;;3.40;;
22282;SDS011;11310;51.528;21.204;2023-10-13T05:30:06;20.48;;;6.30;;
22282;SDS011;11310;51.528;21.204;2023-10-13T05:32:54;38.55;;;13.80;;
22282;SDS011;11310;51.528;21.204;2023-10-13T05:35:39;40.97;;;13.85;;
22282;SDS011;11310;51.528;21.204;2023-10-13T05:38:27;24.08;;;6.85;;
22282;SDS011;11310;51.528;21.204;2023-10-13T05:41:13;12.07;;;4.15;;
22282;SDS011;11310;51.528;21.204;2023-10-13T05:44:04;10.02;;;2.72;;
22282;SDS011;11310;51.528;21.204;2023-10-13T05:46:50;7.30;;;2.40;;
22282;SDS011;11310;51.528;21.204;2023-10-13T05:49:50;5.85;;;2.17;;
22282;SDS011;11310;51.528;21.204;2023-10-13T05:52:20;6.55;;;1.88;;
22282;SDS011;11310;51.528;21.204;2023-10-13T05:55:04;9.45;;;2.28;;
22282;SDS011;11310;51.528;21.204;2023-10-13T05:57:51;8.93;;;2.72;;
22282;SDS011;11310;51.528;21.204;2023-10-13T06:00:41;8.90;;;2.08;;
22282;SDS011;11310;51.528;21.204;2023-10-13T06:03:28;9.02;;;2.28;;
22282;SDS011;11310;51.528;21.204;2023-10-13T06:06:14;6.18;;;2.25;;
22282;SDS011;11310;51.528;21.204;2023-10-13T06:09:00;6.18;;;2.00;;
22282;SDS011;11310;51.528;21.204;2023-10-13T06:11:46;6.50;;;2.03;;
22282;SDS011;11310;51.528;21.204;2023-10-13T06:14:33;7.25;;;2.05;;
22282;SDS011;11310;51.528;21.204;2023-10-13T06:17:19;7.80;;;2.28;;
22282;SDS011;11310;51.528;21.204;2023-10-13T06:20:03;8.00;;;2.40;;
22282;SDS011;11310;51.528;21.204;2023-10-13T06:22:50;5.88;;;1.88;;
22282;SDS011;11310;51.528;21.204;2023-10-13T06:25:36;5.65;;;2.25;;
22282;SDS011;11310;51.528;21.204;2023-10-13T06:28:25;5.35;;;1.92;;
22282;SDS011;11310;51.528;21.204;2023-10-13T06:31:09;7.60;;;2.10;;
22282;SDS011;11310;51.528;21.204;2023-10-13T06:33:49;5.05;;;1.92;;
22282;SDS011;11310;51.528;21.204;2023-10-13T06:36:17;5.22;;;1.90;;
22282;SDS011;11310;51.528;21.204;2023-10-13T06:38:47;5.63;;;1.80;;
22282;SDS011;11310;51.528;21.204;2023-10-13T06:41:23;4.80;;;2.25;;
22282;SDS011;11310;51.528;21.204;2023-10-13T06:44:08;6.15;;;2.00;;
22282;SDS011;11310;51.528;21.204;2023-10-13T06:46:43;8.63;;;2.05;;
22282;SDS011;11310;51.528;21.204;2023-10-13T06:49:12;6.28;;;2.13;;
22282;SDS011;11310;51.528;21.204;2023-10-13T06:51:42;7.45;;;2.20;;
22282;SDS011;11310;51.528;21.204;2023-10-13T06:54:13;5.82;;;1.60;;
22282;SDS011;11310;51.528;21.204;2023-10-13T06:56:47;7.07;;;2.05;;
22282;SDS011;11310;51.528;21.204;2023-10-13T06:59:21;6.72;;;1.75;;
22282;SDS011;11310;51.528;21.204;2023-10-13T07:01:54;6.68;;;2.17;;
22282;SDS011;11310;51.528;21.204;2023-10-13T07:04:50;7.95;;;2.38;;
22282;SDS011;11310;51.528;21.204;2023-10-13T07:07:31;5.15;;;1.92;;
22282;SDS011;11310;51.528;21.204;2023-10-13T07:10:00;7.40;;;2.30;;
22282;SDS011;11310;51.528;21.204;2023-10-13T07:12:28;5.63;;;1.85;;
22282;SDS011;11310;51.528;21.204;2023-10-13T07:15:01;4.70;;;1.63;;
22282;SDS011;11310;51.528;21.204;2023-10-13T07:17:32;6.95;;;1.75;;
22282;SDS011;11310;51.528;21.204;2023-10-13T07:20:06;6.40;;;1.80;;
22282;SDS011;11310;51.528;21.204;2023-10-13T07:22:44;8.18;;;2.20;;
22282;SDS011;11310;51.528;21.204;2023-10-13T07:25:25;7.53;;;2.13;;
22282;SDS011;11310;51.528;21.204;2023-10-13T07:28:00;7.93;;;2.42;;
22282;SDS011;11310;51.528;21.204;2023-10-13T07:30:31;5.50;;;2.22;;
22282;SDS011;11310;51.528;21.204;2023-10-13T07:33:07;5.00;;;2.13;;
22282;SDS011;11310;51.528;21.204;2023-10-13T07:35:40;8.15;;;2.50;;
22282;SDS011;11310;51.528;21.204;2023-10-13T07:38:10;6.13;;;2.30;;
22282;SDS011;11310;51.528;21.204;2023-10-13T07:40:40;12.82;;;2.70;;
22282;SDS011;11310;51.528;21.204;2023-10-13T07:43:11;6.90;;;2.50;;
22282;SDS011;11310;51.528;21.204;2023-10-13T07:45:41;10.68;;;2.50;;
22282;SDS011;11310;51.528;21.204;2023-10-13T07:48:11;5.28;;;2.00;;
22282;SDS011;11310;51.528;21.204;2023-10-13T07:50:57;7.43;;;2.53;;
22282;SDS011;11310;51.528;21.204;2023-10-13T07:53:28;12.68;;;4.03;;
22282;SDS011;11310;51.528;21.204;2023-10-13T07:56:01;11.45;;;2.70;;
22282;SDS011;11310;51.528;21.204;2023-10-13T07:58:34;6.82;;;2.58;;
22282;SDS011;11310;51.528;21.204;2023-10-13T08:01:16;10.50;;;2.78;;
22282;SDS011;11310;51.528;21.204;2023-10-13T08:03:45;9.07;;;2.78;;
22282;SDS011;11310;51.528;21.204;2023-10-13T08:06:18;7.57;;;2.88;;
22282;SDS011;11310;51.528;21.204;2023-10-13T08:08:48;6.78;;;2.33;;
22282;SDS011;11310;51.528;21.204;2023-10-13T08:11:34;7.50;;;2.50;;
22282;SDS011;11310;51.528;21.204;2023-10-13T08:14:05;10.88;;;3.05;;
22282;SDS011;11310;51.528;21.204;2023-10-13T08:17:08;8.65;;;3.25;;
22282;SDS011;11310;51.528;21.204;2023-10-13T08:19:38;10.85;;;3.08;;
22282;SDS011;11310;51.528;21.204;2023-10-13T08:22:13;8.05;;;2.95;;
22282;SDS011;11310;51.528;21.204;2023-10-13T08:24:51;10.38;;;3.13;;
22282;SDS011;11310;51.528;21.204;2023-10-13T08:27:39;8.85;;;3.03;;
22282;SDS011;11310;51.528;21.204;2023-10-13T08:30:17;6.90;;;3.13;;
22282;SDS011;11310;51.528;21.204;2023-10-13T08:32:58;12.02;;;3.30;;
22282;SDS011;11310;51.528;21.204;2023-10-13T08:35:44;8.65;;;3.72;;
22282;SDS011;11310;51.528;21.204;2023-10-13T08:38:33;10.90;;;3.30;;
22282;SDS011;11310;51.528;21.204;2023-10-13T08:41:18;10.15;;;3.67;;
22282;SDS011;11310;51.528;21.204;2023-10-13T08:44:02;10.27;;;4.05;;
22282;SDS011;11310;51.528;21.204;2023-10-13T08:46:36;9.23;;;3.40;;
22282;SDS011;11310;51.528;21.204;2023-10-13T08:49:34;10.82;;;3.58;;
22282;SDS011;11310;51.528;21.204;2023-10-13T08:52:09;8.18;;;3.72;;
22282;SDS011;11310;51.528;21.204;2023-10-13T08:55:12;7.88;;;3.22;;
22282;SDS011;11310;51.528;21.204;2023-10-13T08:57:56;10.00;;;3.70;;
22282;SDS011;11310;51.528;21.204;2023-10-13T09:00:30;8.68;;;3.53;;
22282;SDS011;11310;51.528;21.204;2023-10-13T09:03:15;10.13;;;3.83;;
22282;SDS011;11310;51.528;21.204;2023-10-13T09:06:10;8.65;;;3.67;;
22282;SDS011;11310;51.528;21.204;2023-10-13T09:08:42;11.02;;;4.22;;
22282;SDS011;11310;51.528;21.204;2023-10-13T09:11:33;8.75;;;3.42;;
22282;SDS011;11310;51.528;21.204;2023-10-13T09:14:16;12.13;;;4.15;;
22282;SDS011;11310;51.528;21.204;2023-10-13T09:17:02;10.80;;;3.70;;
22282;SDS011;11310;51.528;21.204;2023-10-13T09:19:43;10.95;;;4.22;;
22282;SDS011;11310;51.528;21.204;2023-10-13T09:22:23;9.65;;;3.65;;
22282;SDS011;11310;51.528;21.204;2023-10-13T09:24:55;9.35;;;3.90;;
22282;SDS011;11310;51.528;21.204;2023-10-13T09:27:26;13.10;;;5.25;;
22282;SDS011;11310;51.528;21.204;2023-10-13T09:29:56;8.50;;;3.95;;
22282;SDS011;11310;51.528;21.204;2023-10-13T09:32:24;10.82;;;5.05;;
22282;SDS011;11310;51.528;21.204;2023-10-13T09:34:59;12.50;;;4.45;;
22282;SDS011;11310;51.528;21.204;2023-10-13T09:37:30;9.57;;;4.60;;
22282;SDS011;11310;51.528;21.204;2023-10-13T09:40:01;11.15;;;4.80;;
22282;SDS011;11310;51.528;21.204;2023-10-13T09:42:51;13.73;;;4.32;;
22282;SDS011;11310;51.528;21.204;2023-10-13T09:45:24;10.75;;;4.57;;
22282;SDS011;11310;51.528;21.204;2023-10-13T09:47:56;14.45;;;4.78;;
22282;SDS011;11310;51.528;21.204;2023-10-13T09:50:36;13.23;;;4.60;;
22282;SDS011;11310;51.528;21.204;2023-10-13T09:53:09;13.75;;;5.30;;
22282;SDS011;11310;51.528;21.204;2023-10-13T09:55:38;11.20;;;4.55;;
22282;SDS011;11310;51.528;21.204;2023-10-13T09:58:12;10.82;;;4.55;;
22282;SDS011;11310;51.528;21.204;2023-10-13T10:00:45;10.18;;;4.45;;
22282;SDS011;11310;51.528;21.204;2023-10-13T10:03:23;9.93;;;5.05;;
22282;SDS011;11310;51.528;21.204;2023-10-13T10:05:58;11.80;;;5.57;;
22282;SDS011;11310;51.528;21.204;2023-10-13T10:08:37;12.27;;;5.13;;
22282;SDS011;11310;51.528;21.204;2023-10-13T10:11:12;13.30;;;4.63;;
22282;SDS011;11310;51.528;21.204;2023-10-13T10:13:53;9.90;;;4.88;;
22282;SDS011;11310;51.528;21.204;2023-10-13T10:16:35;11.65;;;4.60;;
22282;SDS011;11310;51.528;21.204;2023-10-13T10:19:14;11.63;;;5.10;;
22282;SDS011;11310;51.528;21.204;2023-10-13T10:21:43;12.05;;;4.82;;
22282;SDS011;11310;51.528;21.204;2023-10-13T10:24:20;10.27;;;4.47;;
22282;SDS011;11310;51.528;21.204;2023-10-13T10:26:58;10.98;;;5.00;;
22282;SDS011;11310;51.528;21.204;2023-10-13T10:29:26;13.10;;;5.25;;
22282;SDS011;11310;51.528;21.204;2023-10-13T10:31:59;11.25;;;5.10;;
22282;SDS011;11310;51.528;21.204;2023-10-13T10:34:34;11.85;;;5.63;;
22282;SDS011;11310;51.528;21.204;2023-10-13T10:37:02;14.25;;;4.75;;
22282;SDS011;11310;51.528;21.204;2023-10-13T10:39:37;8.45;;;4.45;;
22282;SDS011;11310;51.528;21.204;2023-10-13T10:42:13;12.95;;;4.68;;
22282;SDS011;11310;51.528;21.204;2023-10-13T10:44:50;14.80;;;5.68;;
22282;SDS011;11310;51.528;21.204;2023-10-13T10:47:26;11.77;;;4.95;;
22282;SDS011;11310;51.528;21.204;2023-10-13T10:49:59;13.70;;;5.28;;
22282;SDS011;11310;51.528;21.204;2023-10-13T10:52:34;14.77;;;6.03;;
22282;SDS011;11310;51.528;21.204;2023-10-13T10:55:09;12.00;;;5.13;;
22282;SDS011;11310;51.528;21.204;2023-10-13T10:57:41;11.75;;;6.88;;
22282;SDS011;11310;51.528;21.204;2023-10-13T11:00:17;14.10;;;5.40;;
22282;SDS011;11310;51.528;21.204;2023-10-13T11:02:53;13.13;;;5.25;;
22282;SDS011;11310;51.528;21.204;2023-10-13T11:05:42;11.73;;;4.78;;
22282;SDS011;11310;51.528;21.204;2023-10-13T11:08:20;13.35;;;5.82;;
22282;SDS011;11310;51.528;21.204;2023-10-13T11:10:57;13.40;;;5.15;;
22282;SDS011;11310;51.528;21.204;2023-10-13T11:13:38;14.57;;;4.93;;
22282;SDS011;11310;51.528;21.204;2023-10-13T11:16:24;10.25;;;4.63;;
22282;SDS011;11310;51.528;21.204;2023-10-13T11:19:00;12.70;;;5.50;;
22282;SDS011;11310;51.528;21.204;2023-10-13T11:21:29;12.77;;;4.57;;
22282;SDS011;11310;51.528;21.204;2023-10-13T11:23:58;12.02;;;4.60;;
22282;SDS011;11310;51.528;21.204;2023-10-13T11:26:40;11.00;;;4.40;;
22282;SDS011;11310;51.528;21.204;2023-10-13T11:29:16;11.75;;;4.68;;
22282;SDS011;11310;51.528;21.204;2023-10-13T11:31:47;9.70;;;4.40;;
22282;SDS011;11310;51.528;21.204;2023-10-13T11:34:20;10.60;;;4.47;;
22282;SDS011;11310;51.528;21.204;2023-10-13T11:36:49;11.63;;;4.55;;
22282;SDS011;11310;51.528;21.204;2023-10-13T11:39:18;12.50;;;4.60;;
22282;SDS011;11310;51.528;21.204;2023-10-13T11:41:53;14.07;;;4.40;;
22282;SDS011;11310;51.528;21.204;2023-10-13T11:44:22;14.97;;;4.43;;
22282;SDS011;11310;51.528;21.204;2023-10-13T11:46:59;11.13;;;4.38;;
22282;SDS011;11310;51.528;21.204;2023-10-13T11:49:59;10.77;;;4.38;;
22282;SDS011;11310;51.528;21.204;2023-10-13T11:52:28;11.35;;;4.00;;
22282;SDS011;11310;51.528;21.204;2023-10-13T11:54:57;10.05;;;4.25;;
22282;SDS011;11310;51.528;21.204;2023-10-13T11:57:28;9.52;;;4.20;;
22282;SDS011;11310;51.528;21.204;2023-10-13T11:59:56;9.73;;;4.32;;
22282;SDS011;11310;51.528;21.204;2023-10-13T12:02:43;15.43;;;5.72;;
22282;SDS011;11310;51.528;21.204;2023-10-13T12:05:31;17.40;;;6.20;;
22282;SDS011;11310;51.528;21.204;2023-10-13T12:08:16;22.25;;;10.57;;
22282;SDS011;11310;51.528;21.204;2023-10-13T12:10:49;18.27;;;8.80;;
22282;SDS011;11310;51.528;21.204;2023-10-13T12:13:31;16.30;;;6.18;;
22282;SDS011;11310;51.528;21.204;2023-10-13T12:15:59;14.85;;;5.78;;
22282;SDS011;11310;51.528;21.204;2023-10-13T12:18:36;11.23;;;4.93;;
22282;SDS011;11310;51.528;21.204;2023-10-13T12:21:07;10.82;;;4.32;;
22282;SDS011;11310;51.528;21.204;2023-10-13T12:23:39;14.20;;;4.50;;
22282;SDS011;11310;51.528;21.204;2023-10-13T12:26:13;11.75;;;5.22;;
22282;SDS011;11310;51.528;21.204;2023-10-13T12:28:48;10.77;;;4.43;;
22282;SDS011;11310;51.528;21.204;2023-10-13T12:31:20;12.82;;;5.07;;
22282;SDS011;11310;51.528;21.204;2023-10-13T12:33:54;9.50;;;3.88;;
22282;SDS011;11310;51.528;21.204;2023-10-13T12:36:33;10.27;;;4.50;;
22282;SDS011;11310;51.528;21.204;2023-10-13T12:39:09;13.18;;;4.28;;
22282;SDS011;11310;51.528;21.204;2023-10-13T12:41:55;11.85;;;4.45;;
22282;SDS011;11310;51.528;21.204;2023-10-13T12:44:43;10.90;;;4.63;;
22282;SDS011;11310;51.528;21.204;2023-10-13T12:47:29;9.70;;;5.13;;
22282;SDS011;11310;51.528;21.204;2023-10-13T12:50:15;9.85;;;4.32;;
22282;SDS011;11310;51.528;21.204;2023-10-13T12:53:01;8.07;;;3.90;;
22282;SDS011;11310;51.528;21.204;2023-10-13T12:55:30;10.45;;;4.63;;
22282;SDS011;11310;51.528;21.204;2023-10-13T12:57:59;16.70;;;4.28;;
22282;SDS011;11310;51.528;21.204;2023-10-13T13:00:29;9.07;;;4.05;;
22282;SDS011;11310;51.528;21.204;2023-10-13T13:03:00;12.18;;;4.35;;
22282;SDS011;11310;51.528;21.204;2023-10-13T13:05:38;11.15;;;4.38;;
22282;SDS011;11310;51.528;21.204;2023-10-13T13:08:12;12.05;;;4.55;;
22282;SDS011;11310;51.528;21.204;2023-10-13T13:10:49;8.70;;;4.07;;
22282;SDS011;11310;51.528;21.204;2023-10-13T13:13:18;9.75;;;4.40;;
22282;SDS011;11310;51.528;21.204;2023-10-13T13:15:53;10.15;;;3.92;;
22282;SDS011;11310;51.528;21.204;2023-10-13T13:18:24;9.27;;;4.50;;
22282;SDS011;11310;51.528;21.204;2023-10-13T13:23:21;13.45;;;4.47;;
22282;SDS011;11310;51.528;21.204;2023-10-13T13:25:53;12.85;;;4.07;;
22282;SDS011;11310;51.528;21.204;2023-10-13T13:28:24;9.57;;;4.28;;
22282;SDS011;11310;51.528;21.204;2023-10-13T13:30:58;9.60;;;4.30;;
22282;SDS011;11310;51.528;21.204;2023-10-13T13:33:27;11.05;;;4.40;;
22282;SDS011;11310;51.528;21.204;2023-10-13T13:36:00;15.00;;;4.93;;
22282;SDS011;11310;51.528;21.204;2023-10-13T13:38:31;14.03;;;4.50;;
22282;SDS011;11310;51.528;21.204;2023-10-13T13:41:00;10.18;;;4.78;;
22282;SDS011;11310;51.528;21.204;2023-10-13T13:43:30;15.25;;;4.72;;
22282;SDS011;11310;51.528;21.204;2023-10-13T13:46:06;13.32;;;4.32;;
22282;SDS011;11310;51.528;21.204;2023-10-13T13:48:39;11.48;;;4.50;;
22282;SDS011;11310;51.528;21.204;2023-10-13T13:51:08;14.07;;;4.35;;
22282;SDS011;11310;51.528;21.204;2023-10-13T13:53:42;11.55;;;4.40;;
22282;SDS011;11310;51.528;21.204;2023-10-13T13:56:13;14.23;;;5.30;;
22282;SDS011;11310;51.528;21.204;2023-10-13T13:58:44;10.00;;;4.43;;
22282;SDS011;11310;51.528;21.204;2023-10-13T14:01:14;12.75;;;4.60;;
22282;SDS011;11310;51.528;21.204;2023-10-13T14:03:46;8.90;;;4.15;;
22282;SDS011;11310;51.528;21.204;2023-10-13T14:06:18;12.27;;;5.13;;
22282;SDS011;11310;51.528;21.204;2023-10-13T14:08:51;13.07;;;4.68;;
22282;SDS011;11310;51.528;21.204;2023-10-13T14:11:24;10.80;;;4.95;;
22282;SDS011;11310;51.528;21.204;2023-10-13T14:14:16;10.13;;;3.90;;
22282;SDS011;11310;51.528;21.204;2023-10-13T14:17:03;14.40;;;4.75;;
22282;SDS011;11310;51.528;21.204;2023-10-13T14:19:36;13.77;;;5.05;;
22282;SDS011;11310;51.528;21.204;2023-10-13T14:22:08;14.82;;;4.72;;
22282;SDS011;11310;51.528;21.204;2023-10-13T14:24:39;11.05;;;4.68;;
22282;SDS011;11310;51.528;21.204;2023-10-13T14:27:21;15.05;;;4.43;;
22282;SDS011;11310;51.528;21.204;2023-10-13T14:29:55;13.60;;;5.05;;
22282;SDS011;11310;51.528;21.204;2023-10-13T14:32:26;11.75;;;4.72;;
22282;SDS011;11310;51.528;21.204;2023-10-13T14:34:55;11.88;;;4.47;;
22282;SDS011;11310;51.528;21.204;2023-10-13T14:37:24;13.77;;;4.93;;
22282;SDS011;11310;51.528;21.204;2023-10-13T14:39:58;12.40;;;4.80;;
22282;SDS011;11310;51.528;21.204;2023-10-13T14:42:28;12.48;;;5.18;;
22282;SDS011;11310;51.528;21.204;2023-10-13T14:45:03;12.38;;;4.88;;
22282;SDS011;11310;51.528;21.204;2023-10-13T14:47:42;10.90;;;5.22;;
22282;SDS011;11310;51.528;21.204;2023-10-13T14:50:11;11.60;;;5.07;;
22282;SDS011;11310;51.528;21.204;2023-10-13T14:52:48;12.27;;;5.30;;
22282;SDS011;11310;51.528;21.204;2023-10-13T14:55:17;11.48;;;6.57;;
22282;SDS011;11310;51.528;21.204;2023-10-13T14:58:00;14.73;;;6.13;;
22282;SDS011;11310;51.528;21.204;2023-10-13T15:00:31;11.47;;;6.13;;
22282;SDS011;11310;51.528;21.204;2023-10-13T15:03:01;12.48;;;5.57;;
22282;SDS011;11310;51.528;21.204;2023-10-13T15:05:37;14.15;;;6.32;;
22282;SDS011;11310;51.528;21.204;2023-10-13T15:08:05;13.00;;;5.90;;
22282;SDS011;11310;51.528;21.204;2023-10-13T15:10:35;13.82;;;7.07;;
22282;SDS011;11310;51.528;21.204;2023-10-13T15:13:03;12.57;;;5.90;;
22282;SDS011;11310;51.528;21.204;2023-10-13T15:15:32;16.20;;;6.50;;
22282;SDS011;11310;51.528;21.204;2023-10-13T15:18:04;13.45;;;6.20;;
22282;SDS011;11310;51.528;21.204;2023-10-13T15:20:38;12.77;;;6.00;;
22282;SDS011;11310;51.528;21.204;2023-10-13T15:23:10;14.60;;;5.82;;
22282;SDS011;11310;51.528;21.204;2023-10-13T15:25:42;12.13;;;6.10;;